Terminal Aerodrome Forecast
Issued by NWS

Home | Current Version | Previous Version | Text Only | Print | Product List | Glossary On
Versions: 1 2 3 4 5 6 7 8 9 10 11 12 13 14 15 16
000
FTUS42 KMLB 211721
TAFLEE
TAF
KLEE 211721Z 2118/2218 12011KT P6SM SCT040
     FM220300 09004KT P6SM SKC
      TEMPO 2209/2213 3SM BR
     FM221500 11008KT P6SM SCT040=

USA.gov is the U.S. government's official web portal to all federal, state and local government web resources and services.